»·PEaware :: AMX643 KLAX-MMMX

AMX643 :: KLAX-MMMX

FLIGHT INFORMATION

Flight Status: Arrived
Operator:
Aeromexico
More flights by this operator :: More flights under this callsign
Pilot: Isaac R. (8401)
Aircraft: BOEING 737-800
(B738)
More flights by this aircraft type
Origin: KLAX Los Angeles Intl
United States
Destination: MMMX Lic Benito Juarez Intl
Mexico
More flights between these airports :: More routes between these airports
Route: +LOOP8 LAX TIJ UT4 LMM UJ6 CUL UJ12 XOSGI UT2 AGU UJ33 QET TIKE1B
File this flight plan on PilotEdge
Remarks:
Altitude:
(Current/Filed)
37,000ft
Speed:
(Current/Filed)
500kts
Departed: 01-Apr-16 11:01 AM
Arrived: 01-Apr-16 01:58 PM
Distance/Time
Traveled:
1349nm/2:57
Distance/Time
To Go:
Arrived

Flight Plot

Page will automatically refresh every two minutes.

Flight plan parsing failed; only flown route is shown


Map Options




Map Legend


Flown Route
Filed Route
Departure Airport
Arrival Airport
Navaid (VOR, NDB)
Fix

Horizontal Profiles

Position Reports

Time Latitude Longitude Heading Altitude Ground
Speed
01-Apr-16 10:32 33.946717 -118.403477 262 134ft 0kts
01-Apr-16 10:33 33.946717 -118.403477 262 134ft 0kts
01-Apr-16 10:34 33.946717 -118.403477 262 134ft 0kts
01-Apr-16 10:35 33.946730 -118.402884 282 134ft 2kts
01-Apr-16 10:36 33.946545 -118.402579 352 134ft 0kts
01-Apr-16 10:37 33.946546 -118.402579 352 134ft 0kts
01-Apr-16 10:38 33.946548 -118.402579 352 134ft 0kts
01-Apr-16 10:39 33.946617 -118.402589 352 134ft 1kts
01-Apr-16 10:40 33.948070 -118.403449 263 134ft 12kts
01-Apr-16 10:41 33.947564 -118.408376 262 134ft 15kts
01-Apr-16 10:42 33.947229 -118.411871 263 134ft 8kts
01-Apr-16 10:43 33.946456 -118.417466 256 134ft 18kts
01-Apr-16 10:44 33.942751 -118.417634 172 134ft 12kts
01-Apr-16 10:45 33.939069 -118.417092 172 134ft 16kts
01-Apr-16 10:46 33.938220 -118.413424 82 134ft 8kts
01-Apr-16 10:47 33.938617 -118.409555 82 134ft 15kts
01-Apr-16 10:48 33.939239 -118.403417 82 134ft 19kts
01-Apr-16 10:49 33.939860 -118.397360 82 134ft 17kts
01-Apr-16 10:50 33.940420 -118.391821 82 134ft 16kts
01-Apr-16 10:51 33.940951 -118.385987 82 134ft 20kts
01-Apr-16 10:52 33.940528 -118.380505 136 134ft 16kts
01-Apr-16 10:53 33.937364 -118.405198 264 461ft 172kts
01-Apr-16 10:54 33.934371 -118.466837 265 3747ft 198kts
01-Apr-16 10:55 33.927023 -118.545523 247 5663ft 272kts
01-Apr-16 10:56 33.860694 -118.568662 146 8606ft 286kts
01-Apr-16 10:57 33.802218 -118.498613 131 11173ft 322kts
01-Apr-16 10:58 33.733360 -118.412975 130 12989ft 374kts
01-Apr-16 10:59 33.659275 -118.320906 130 15643ft 391kts
01-Apr-16 11:00 33.581912 -118.224598 129 18034ft 408kts
01-Apr-16 11:01 33.501614 -118.124698 129 20275ft 422kts
01-Apr-16 11:02 33.418795 -118.022126 129 22280ft 435kts
01-Apr-16 11:03 33.333293 -117.916607 129 24081ft 446kts
01-Apr-16 11:04 33.245655 -117.808790 129 25787ft 455kts
01-Apr-16 11:05 33.156189 -117.699070 128 27286ft 464kts
01-Apr-16 11:06 33.064970 -117.587545 128 28583ft 473kts
01-Apr-16 11:07 32.987839 -117.493515 128 29552ft 480kts
01-Apr-16 11:08 32.879245 -117.361541 128 31311ft 475kts
01-Apr-16 11:09 32.802018 -117.267976 127 32458ft 473kts
01-Apr-16 11:10 32.709939 -117.156446 127 33753ft 470kts
01-Apr-16 11:11 32.617877 -117.045660 128 34840ft 471kts
01-Apr-16 11:12 32.525517 -116.934343 127 35785ft 472kts
01-Apr-16 11:13 32.435829 -116.820063 127 36674ft 473kts
01-Apr-16 11:14 32.345493 -116.705553 127 37201ft 477kts
01-Apr-16 11:15 32.255073 -116.590901 127 37193ft 475kts
01-Apr-16 11:16 32.164620 -116.476489 127 37189ft 476kts
01-Apr-16 11:17 32.073872 -116.362239 127 37156ft 476kts
01-Apr-16 11:18 31.982940 -116.248168 127 37152ft 476kts
01-Apr-16 11:19 31.891897 -116.134334 127 37150ft 476kts
01-Apr-16 11:20 31.800709 -116.020677 127 37149ft 476kts
01-Apr-16 11:21 31.709393 -115.907214 127 37148ft 477kts
01-Apr-16 11:22 31.617858 -115.793825 128 37135ft 478kts
01-Apr-16 11:23 31.526247 -115.680690 128 37132ft 479kts
01-Apr-16 11:24 31.434013 -115.567131 128 37120ft 480kts
01-Apr-16 11:25 31.341553 -115.453646 129 37120ft 481kts
01-Apr-16 11:26 31.248743 -115.340078 129 37120ft 483kts
01-Apr-16 11:27 31.155586 -115.226429 129 37115ft 483kts
01-Apr-16 11:28 31.062067 -115.112685 130 37117ft 485kts
01-Apr-16 11:29 30.968253 -114.998929 130 37118ft 487kts
01-Apr-16 11:30 30.873970 -114.884950 131 37118ft 488kts
01-Apr-16 11:31 30.779326 -114.770878 131 37115ft 490kts
01-Apr-16 11:32 30.684232 -114.656613 132 37115ft 491kts
01-Apr-16 11:33 30.588761 -114.542242 132 37116ft 493kts
01-Apr-16 11:34 30.492829 -114.427663 133 37117ft 494kts
01-Apr-16 11:35 30.396409 -114.312854 133 37118ft 496kts
01-Apr-16 11:36 30.299604 -114.197931 133 37119ft 498kts
01-Apr-16 11:37 30.202581 -114.083097 134 37126ft 498kts
01-Apr-16 11:38 30.105292 -113.968342 133 37131ft 496kts
01-Apr-16 11:39 30.009762 -113.855913 133 37131ft 487kts
01-Apr-16 11:40 29.913444 -113.742890 134 37135ft 500kts
01-Apr-16 11:41 29.815772 -113.628656 135 37140ft 498kts
01-Apr-16 11:42 29.718117 -113.514774 135 37140ft 499kts
01-Apr-16 11:43 29.620098 -113.400800 136 37140ft 498kts
01-Apr-16 11:44 29.522300 -113.287419 136 37141ft 498kts
01-Apr-16 11:45 29.424479 -113.174337 136 37141ft 498kts
01-Apr-16 11:46 29.326762 -113.061705 137 37141ft 497kts
01-Apr-16 11:47 29.228890 -112.949215 137 37141ft 497kts
01-Apr-16 11:48 29.130935 -112.836957 138 37141ft 497kts
01-Apr-16 11:49 29.032844 -112.724863 138 37122ft 497kts
01-Apr-16 11:50 28.934688 -112.613016 139 37114ft 497kts
01-Apr-16 11:51 28.836403 -112.501335 139 37114ft 497kts
01-Apr-16 11:52 28.737871 -112.389689 140 37113ft 498kts
01-Apr-16 11:53 28.639062 -112.278045 140 37111ft 499kts
01-Apr-16 11:54 28.540204 -112.166661 141 37109ft 499kts
01-Apr-16 11:55 28.441145 -112.055364 142 37104ft 499kts
01-Apr-16 11:56 28.342152 -111.944510 140 37080ft 495kts
01-Apr-16 11:57 28.244436 -111.835283 141 37058ft 493kts
01-Apr-16 11:58 28.162736 -111.744207 141 37052ft 493kts
01-Apr-16 11:59 28.064676 -111.635178 142 37046ft 493kts
01-Apr-16 12:00 27.966341 -111.526110 143 37041ft 496kts
01-Apr-16 12:01 27.866652 -111.415894 143 37030ft 500kts
01-Apr-16 12:02 27.766993 -111.305995 143 37033ft 499kts
01-Apr-16 12:03 27.667351 -111.196406 144 37034ft 498kts
01-Apr-16 12:04 27.567756 -111.087161 144 37035ft 498kts
01-Apr-16 12:05 27.468121 -110.978163 144 37042ft 497kts
01-Apr-16 12:06 27.368444 -110.869411 145 37020ft 498kts
01-Apr-16 12:07 27.268403 -110.760549 145 37019ft 497kts
01-Apr-16 12:08 27.168608 -110.652240 145 37021ft 498kts
01-Apr-16 12:09 27.068632 -110.544016 146 37022ft 499kts
01-Apr-16 12:10 26.968637 -110.436056 146 37023ft 497kts
01-Apr-16 12:11 26.868510 -110.328233 146 37024ft 499kts
01-Apr-16 12:12 26.768107 -110.220389 147 37026ft 499kts
01-Apr-16 12:13 26.667792 -110.112923 148 37029ft 498kts
01-Apr-16 12:14 26.567246 -110.005481 148 37031ft 499kts
01-Apr-16 12:15 26.467162 -109.898839 147 37035ft 494kts
01-Apr-16 12:16 26.367283 -109.792624 147 37043ft 495kts
01-Apr-16 12:17 26.267477 -109.686770 148 37049ft 494kts
01-Apr-16 12:18 26.167571 -109.581078 148 37052ft 494kts
01-Apr-16 12:19 26.067556 -109.475531 148 37055ft 494kts
01-Apr-16 12:20 25.967357 -109.370008 149 37059ft 497kts
01-Apr-16 12:21 25.866379 -109.263820 149 37059ft 498kts
01-Apr-16 12:22 25.765270 -109.157967 149 37060ft 498kts
01-Apr-16 12:23 25.667504 -109.046619 138 37058ft 519kts
01-Apr-16 12:24 25.589130 -108.908920 132 37060ft 528kts
01-Apr-16 12:25 25.511032 -108.770767 133 37060ft 528kts
01-Apr-16 12:26 25.432689 -108.632796 133 37061ft 528kts
01-Apr-16 12:27 25.354084 -108.495233 133 37061ft 526kts
01-Apr-16 12:28 25.275841 -108.358875 134 37061ft 525kts
01-Apr-16 12:29 25.197410 -108.222612 134 37060ft 524kts
01-Apr-16 12:30 25.118906 -108.086617 134 37058ft 524kts
01-Apr-16 12:31 25.040028 -107.950358 134 37054ft 523kts
01-Apr-16 12:32 24.961546 -107.815166 134 37052ft 522kts
01-Apr-16 12:33 24.883056 -107.680040 134 37050ft 522kts
01-Apr-16 12:34 24.804323 -107.545339 135 37050ft 522kts
01-Apr-16 12:35 24.726255 -107.409709 133 37049ft 525kts
01-Apr-16 12:36 24.649272 -107.273182 133 37049ft 523kts
01-Apr-16 12:37 24.572452 -107.137334 133 37048ft 523kts
01-Apr-16 12:38 24.495672 -107.001430 134 37046ft 522kts
01-Apr-16 12:39 24.418704 -106.865867 134 37043ft 522kts
01-Apr-16 12:40 24.341609 -106.730511 133 37039ft 523kts
01-Apr-16 12:41 24.264222 -106.594732 134 37034ft 523kts
01-Apr-16 12:42 24.186641 -106.459456 134 37029ft 523kts
01-Apr-16 12:43 24.108926 -106.324344 134 37032ft 523kts
01-Apr-16 12:44 24.031076 -106.189455 134 37043ft 523kts
01-Apr-16 12:45 23.953210 -106.054653 134 37042ft 523kts
01-Apr-16 12:46 23.875367 -105.919910 134 37043ft 523kts
01-Apr-16 12:48 23.732412 -105.673565 134 37049ft 522kts
01-Apr-16 12:49 23.654299 -105.539793 134 37054ft 521kts
01-Apr-16 12:50 23.576191 -105.406454 134 37061ft 520kts
01-Apr-16 12:51 23.498089 -105.273639 133 37068ft 519kts
01-Apr-16 12:52 23.420066 -105.141228 133 37074ft 518kts
01-Apr-16 12:53 23.342574 -105.009438 133 37079ft 517kts
01-Apr-16 12:54 23.264993 -104.878121 133 37084ft 511kts
01-Apr-16 12:55 23.187747 -104.747772 133 37096ft 512kts
01-Apr-16 12:56 23.110482 -104.617729 133 37103ft 511kts
01-Apr-16 12:57 23.032955 -104.487572 133 37110ft 510kts
01-Apr-16 12:58 22.955754 -104.358282 133 37121ft 509kts
01-Apr-16 12:59 22.878884 -104.229618 133 37133ft 506kts
01-Apr-16 13:00 22.801989 -104.101628 133 37148ft 505kts
01-Apr-16 13:01 22.725124 -103.974057 133 37151ft 505kts
01-Apr-16 13:02 22.647565 -103.845836 133 37157ft 507kts
01-Apr-16 13:03 22.570125 -103.717874 133 37161ft 507kts
01-Apr-16 13:04 22.492839 -103.589982 133 37167ft 506kts
01-Apr-16 13:05 22.415372 -103.462672 133 37170ft 505kts
01-Apr-16 13:06 22.338205 -103.335504 133 37164ft 505kts
01-Apr-16 13:07 22.261309 -103.208480 132 37173ft 504kts
01-Apr-16 13:08 22.184698 -103.081626 132 37174ft 503kts
01-Apr-16 13:09 22.107945 -102.955343 132 37175ft 502kts
01-Apr-16 13:10 22.030725 -102.830051 133 37175ft 500kts
01-Apr-16 13:11 21.953447 -102.706231 132 37176ft 495kts
01-Apr-16 13:12 21.876495 -102.582788 132 37176ft 496kts
01-Apr-16 13:13 21.799451 -102.459360 132 37178ft 495kts
01-Apr-16 13:14 21.722297 -102.336079 130 37178ft 497kts
01-Apr-16 13:15 21.661390 -102.199399 121 37179ft 508kts
01-Apr-16 13:16 21.603906 -102.060311 121 37179ft 508kts
01-Apr-16 13:17 21.545969 -101.921507 121 37182ft 508kts
01-Apr-16 13:18 21.487908 -101.782889 121 37187ft 508kts
01-Apr-16 13:19 21.429834 -101.644424 121 37195ft 508kts
01-Apr-16 13:20 21.371757 -101.506050 121 37204ft 507kts
01-Apr-16 13:21 21.313491 -101.368067 122 37212ft 506kts
01-Apr-16 13:22 21.242359 -101.240255 131 37214ft 496kts
01-Apr-16 13:23 21.167635 -101.115565 130 37212ft 496kts
01-Apr-16 13:24 21.093447 -100.990677 130 37209ft 496kts
01-Apr-16 13:25 21.019415 -100.865879 130 37198ft 495kts
01-Apr-16 13:26 20.945121 -100.741012 130 37205ft 496kts
01-Apr-16 13:27 20.870797 -100.616384 130 37204ft 495kts
01-Apr-16 13:28 20.796749 -100.492491 130 37206ft 495kts
01-Apr-16 13:29 20.722525 -100.368350 130 37208ft 494kts
01-Apr-16 13:30 20.648177 -100.244626 130 37210ft 493kts
01-Apr-16 13:31 20.568593 -100.126141 137 35537ft 488kts
01-Apr-16 13:32 20.483043 -100.012894 136 32944ft 485kts
01-Apr-16 13:33 20.399930 -99.901888 137 30890ft 470kts
01-Apr-16 13:34 20.319941 -99.794797 137 29125ft 447kts
01-Apr-16 13:35 20.243618 -99.692473 137 27412ft 438kts
01-Apr-16 13:36 20.169075 -99.592607 136 25743ft 424kts
01-Apr-16 13:37 20.096544 -99.495796 136 24130ft 410kts
01-Apr-16 13:38 20.026314 -99.402624 136 22566ft 395kts
01-Apr-16 13:39 19.958131 -99.312895 136 21003ft 382kts
01-Apr-16 13:40 19.903047 -99.240309 136 19743ft 373kts
01-Apr-16 13:41 19.838420 -99.155253 135 18267ft 362kts
01-Apr-16 13:42 19.776124 -99.073529 135 16903ft 347kts
01-Apr-16 13:43 19.700886 -98.999586 153 16588ft 290kts
01-Apr-16 13:44 19.646721 -98.964098 155 16228ft 254kts
01-Apr-16 13:45 19.592130 -98.922847 152 15181ft 228kts
01-Apr-16 13:46 19.535947 -98.913387 200 13158ft 210kts
01-Apr-16 13:47 19.497648 -98.958345 236 10861ft 207kts
01-Apr-16 13:48 19.468970 -99.010525 238 8561ft 205kts
01-Apr-16 13:49 19.442866 -99.057476 239 7344ft 153kts
01-Apr-16 13:50 19.433588 -99.074009 229 7324ft 17kts
01-Apr-16 13:51 19.430206 -99.076606 237 7324ft 10kts
01-Apr-16 13:52 19.427776 -99.079002 220 7324ft 15kts
01-Apr-16 13:53 19.425634 -99.081438 150 7324ft 8kts
01-Apr-16 13:54 19.422948 -99.079304 129 7324ft 8kts
01-Apr-16 13:55 19.422938 -99.078524 58 7324ft 0kts
01-Apr-16 13:56 19.422941 -99.078517 58 7324ft 0kts
01-Apr-16 13:57 19.422941 -99.078517 58 7324ft 0kts
01-Apr-16 13:58 19.422941 -99.078517 58 7324ft 0kts
01-Apr-16 13:59 19.422941 -99.078517 58 7324ft 0kts
01-Apr-16 14:00 19.422941 -99.078517 58 7324ft 0kts
01-Apr-16 14:01 19.422941 -99.078517 58 7324ft 0kts
01-Apr-16 14:02 19.422941 -99.078517 58 7324ft 0kts
01-Apr-16 14:03 19.422941 -99.078517 58 7324ft 0kts
01-Apr-16 14:04 19.422941 -99.078517 58 7324ft 0kts

Navigation Log

Ident Type
Flight plan parsing failed, navigation log unavailable